createdAt,value
2022-10-19T00:02:21.275Z,11.92
2022-10-19T00:04:47.788Z,11.91
2022-10-19T00:07:14.325Z,11.87
2022-10-19T00:09:43.970Z,11.84
2022-10-19T00:12:11.017Z,11.82
2022-10-19T00:14:37.587Z,11.82
2022-10-19T00:17:04.070Z,11.75
2022-10-19T00:19:30.599Z,11.75
2022-10-19T00:21:57.101Z,11.71
2022-10-19T00:24:23.631Z,11.70
2022-10-19T00:26:50.185Z,11.63
2022-10-19T00:29:17.165Z,11.58
2022-10-19T00:31:43.887Z,11.55
2022-10-19T00:34:10.957Z,11.55
2022-10-19T00:36:39.886Z,11.49
2022-10-19T00:39:10.609Z,11.43
2022-10-19T00:41:37.966Z,11.37
2022-10-19T00:44:06.656Z,11.28
2022-10-19T00:46:39.513Z,11.22
2022-10-19T00:49:28.379Z,11.10
2022-10-19T00:51:58.227Z,10.99
2022-10-19T00:54:25.924Z,10.90
2022-10-19T00:56:55.884Z,10.77
2022-10-19T00:59:25.251Z,10.80
2022-10-19T01:01:52.643Z,10.73
2022-10-19T01:04:22.050Z,10.72
2022-10-19T01:06:48.606Z,10.75
2022-10-19T01:09:15.147Z,10.75
2022-10-19T01:11:53.905Z,10.68
2022-10-19T01:14:20.349Z,10.67
2022-10-19T01:16:51.029Z,10.66
2022-10-19T01:19:58.899Z,10.63
2022-10-19T01:22:53.449Z,10.60
2022-10-19T01:25:30.044Z,10.59
2022-10-19T01:28:24.070Z,10.51
2022-10-19T01:30:59.378Z,10.44
2022-10-19T01:33:28.612Z,10.40
2022-10-19T01:36:04.713Z,10.33
2022-10-19T01:38:47.575Z,10.31
2022-10-19T01:41:20.098Z,10.31
2022-10-19T01:44:01.817Z,10.23
2022-10-19T01:46:39.299Z,10.20
2022-10-19T01:49:38.163Z,10.11
2022-10-19T01:52:09.181Z,10.12
2022-10-19T01:54:45.014Z,10.13
2022-10-19T01:57:15.298Z,10.13
2022-10-19T01:59:43.265Z,10.13
2022-10-19T02:02:11.707Z,10.12
2022-10-19T02:04:39.732Z,10.13
2022-10-19T02:07:08.287Z,10.12
2022-10-19T02:09:35.678Z,10.15
2022-10-19T02:12:06.352Z,10.15
2022-10-19T02:14:37.533Z,10.13
2022-10-19T02:17:14.208Z,10.14
2022-10-19T02:19:42.877Z,10.17
2022-10-19T02:22:10.532Z,10.16
2022-10-19T02:24:37.103Z,10.14
2022-10-19T02:27:06.339Z,10.14
2022-10-19T02:29:34.450Z,10.16
2022-10-19T02:32:02.076Z,10.16
2022-10-19T02:34:29.462Z,10.17
2022-10-19T02:36:56.210Z,10.16
2022-10-19T02:39:23.094Z,10.13
2022-10-19T02:41:55.798Z,10.13
2022-10-19T02:44:37.730Z,10.08
2022-10-19T02:47:15.568Z,10.11
2022-10-19T02:49:43.649Z,10.07
2022-10-19T02:52:12.551Z,10.08
2022-10-19T02:54:41.002Z,10.05
2022-10-19T02:57:19.769Z,10.00
2022-10-19T02:59:46.586Z,9.97
2022-10-19T03:02:14.132Z,9.97
2022-10-19T03:04:41.850Z,9.95
2022-10-19T03:07:16.354Z,9.96
2022-10-19T03:09:43.535Z,9.94
2022-10-19T03:12:11.180Z,9.93
2022-10-19T03:14:37.922Z,9.91
2022-10-19T03:17:04.679Z,9.82
2022-10-19T03:19:32.082Z,9.74
2022-10-19T03:21:58.574Z,9.66
2022-10-19T03:24:25.263Z,9.51
2022-10-19T03:26:51.896Z,9.44
2022-10-19T03:29:18.419Z,9.34
2022-10-19T03:31:44.966Z,9.25
2022-10-19T03:34:11.442Z,9.18
2022-10-19T03:36:39.550Z,9.13
2022-10-19T03:39:11.323Z,9.07
2022-10-19T03:41:38.611Z,9.02
2022-10-19T03:44:07.068Z,8.98
2022-10-19T03:46:34.224Z,8.86
2022-10-19T03:49:00.720Z,8.81
2022-10-19T03:51:29.332Z,8.76
2022-10-19T03:53:59.351Z,8.69
2022-10-19T03:56:27.402Z,8.61
2022-10-19T03:58:55.685Z,8.61
2022-10-19T04:01:25.492Z,8.54
2022-10-19T04:03:56.556Z,8.51
2022-10-19T04:06:27.023Z,8.53
2022-10-19T04:08:53.558Z,8.42
2022-10-19T04:11:22.957Z,8.33
2022-10-19T04:13:50.585Z,8.25
2022-10-19T04:16:17.202Z,8.23
2022-10-19T04:18:43.806Z,8.18
2022-10-19T04:21:21.358Z,8.16
2022-10-19T04:23:47.957Z,8.09
2022-10-19T04:26:14.718Z,8.09
2022-10-19T04:28:41.340Z,8.16
2022-10-19T04:31:08.264Z,8.12
2022-10-19T04:33:34.934Z,8.05
2022-10-19T04:36:04.038Z,8.00
2022-10-19T04:38:30.915Z,7.95
2022-10-19T04:41:02.708Z,7.92
2022-10-19T04:43:29.281Z,7.90
2022-10-19T04:45:55.796Z,7.85
2022-10-19T04:48:22.458Z,7.85
2022-10-19T04:50:48.989Z,7.85
2022-10-19T04:53:15.552Z,7.80
2022-10-19T04:55:42.890Z,7.80
2022-10-19T04:58:09.708Z,7.80
2022-10-19T05:00:38.122Z,7.76
2022-10-19T05:03:04.968Z,7.68
2022-10-19T05:05:32.781Z,7.68
2022-10-19T05:07:59.293Z,7.62
2022-10-19T05:10:26.929Z,7.53
2022-10-19T05:12:54.342Z,7.45
2022-10-19T05:15:21.262Z,7.39
2022-10-19T05:17:48.187Z,7.29
2022-10-19T05:20:14.863Z,7.19
2022-10-19T05:22:41.564Z,7.20
2022-10-19T05:25:08.452Z,7.09
2022-10-19T05:27:36.781Z,7.00
2022-10-19T05:30:04.569Z,6.89
2022-10-19T05:32:31.078Z,6.82
2022-10-19T05:34:57.680Z,6.75
2022-10-19T05:37:25.692Z,6.76
2022-10-19T05:39:52.337Z,6.78
2022-10-19T05:42:18.857Z,6.79
2022-10-19T05:44:45.352Z,6.83
2022-10-19T05:47:11.886Z,6.89
2022-10-19T05:49:38.448Z,6.96
2022-10-19T05:52:05.148Z,6.99
2022-10-19T05:54:31.991Z,7.07
2022-10-19T05:56:58.602Z,7.21
2022-10-19T05:59:25.120Z,7.36
2022-10-19T06:01:51.723Z,7.52
2022-10-19T06:04:18.390Z,7.67
2022-10-19T06:06:46.056Z,7.75
2022-10-19T06:09:12.803Z,7.91
2022-10-19T06:11:41.577Z,8.00
2022-10-19T06:14:13.547Z,8.20
2022-10-19T06:16:40.159Z,8.25
2022-10-19T06:19:06.928Z,8.45
2022-10-19T06:21:34.585Z,8.62
2022-10-19T06:24:06.507Z,8.69
2022-10-19T06:26:34.321Z,8.77
2022-10-19T06:29:01.979Z,8.91
2022-10-19T06:31:30.902Z,8.97
2022-10-19T06:33:57.604Z,9.05
2022-10-19T06:36:27.965Z,9.21
2022-10-19T06:38:55.935Z,9.31
2022-10-19T06:41:23.673Z,9.39
2022-10-19T06:43:51.743Z,9.46
2022-10-19T06:46:20.730Z,9.60
2022-10-19T06:48:51.756Z,9.70
2022-10-19T06:51:19.079Z,9.80
2022-10-19T06:53:45.867Z,9.76
2022-10-19T06:56:12.625Z,9.84
2022-10-19T06:58:39.943Z,9.98
2022-10-19T07:01:08.529Z,10.06
2022-10-19T07:03:36.084Z,10.08
2022-10-19T07:06:05.400Z,10.14
2022-10-19T07:08:33.245Z,10.06
2022-10-19T07:11:02.883Z,10.20
2022-10-19T07:13:29.991Z,10.34
2022-10-19T07:16:03.508Z,10.43
2022-10-19T07:18:29.961Z,10.42
2022-10-19T07:20:57.726Z,10.58
2022-10-19T07:23:25.707Z,10.66
2022-10-19T07:25:53.644Z,10.55
2022-10-19T07:28:21.799Z,10.57
2022-10-19T07:30:48.601Z,10.52
2022-10-19T07:33:15.179Z,10.36
2022-10-19T07:35:41.787Z,10.25
2022-10-19T07:38:08.871Z,10.07
2022-10-19T07:40:36.089Z,10.08
2022-10-19T07:43:02.706Z,10.06
2022-10-19T07:45:30.011Z,10.15
2022-10-19T07:47:56.562Z,10.51
2022-10-19T07:50:24.676Z,10.83
2022-10-19T07:52:55.753Z,11.10
2022-10-19T07:55:22.268Z,11.30
2022-10-19T07:57:49.939Z,11.46
2022-10-19T08:00:17.512Z,11.57
2022-10-19T08:02:54.875Z,11.71
2022-10-19T08:05:33.123Z,11.83
2022-10-19T08:07:59.633Z,12.00
2022-10-19T08:10:26.199Z,12.04
2022-10-19T08:12:53.867Z,12.03
2022-10-19T08:15:20.848Z,12.04
2022-10-19T08:17:47.450Z,11.98
2022-10-19T08:20:14.046Z,11.94
2022-10-19T08:22:41.873Z,11.98
2022-10-19T08:25:08.587Z,11.84
2022-10-19T08:30:02.781Z,12.51
2022-10-19T08:32:29.311Z,12.38
2022-10-19T08:34:55.852Z,12.26
2022-10-19T08:37:43.710Z,12.16
2022-10-19T08:40:19.017Z,12.62
2022-10-19T08:43:04.697Z,12.67
2022-10-19T08:45:49.009Z,12.68
2022-10-19T08:48:30.300Z,12.68
2022-10-19T08:50:59.261Z,12.98
2022-10-19T08:53:54.531Z,13.35
2022-10-19T08:56:50.889Z,13.23
2022-10-19T08:59:42.784Z,13.65
2022-10-19T09:02:31.028Z,12.74
2022-10-19T09:05:05.943Z,12.49
2022-10-19T09:07:45.539Z,12.01
2022-10-19T09:10:15.671Z,12.23
2022-10-19T09:13:05.436Z,12.28
2022-10-19T09:15:41.890Z,12.40
2022-10-19T09:18:19.180Z,12.69
2022-10-19T09:20:49.080Z,13.11
2022-10-19T09:23:38.036Z,12.93
2022-10-19T09:26:11.561Z,13.23
2022-10-19T09:28:56.040Z,13.31
2022-10-19T09:31:31.494Z,13.19
2022-10-19T09:34:03.195Z,12.99
2022-10-19T09:36:49.989Z,13.20
2022-10-19T09:39:18.126Z,13.20
2022-10-19T09:41:49.606Z,13.47
2022-10-19T09:44:16.596Z,13.33
2022-10-19T09:47:01.945Z,13.13
2022-10-19T09:49:43.082Z,12.86
2022-10-19T09:52:41.749Z,12.78
2022-10-19T09:55:14.005Z,13.02
2022-10-19T09:57:44.938Z,13.46
2022-10-19T10:00:24.078Z,13.61
2022-10-19T10:02:53.405Z,13.21
2022-10-19T10:05:25.056Z,13.24
2022-10-19T10:07:55.344Z,13.67
2022-10-19T10:10:29.650Z,14.26
2022-10-19T10:12:59.816Z,14.40
2022-10-19T10:15:42.860Z,14.20
2022-10-19T10:18:17.661Z,14.54
2022-10-19T10:21:06.838Z,14.63
2022-10-19T10:23:36.481Z,14.64
2022-10-19T10:26:04.916Z,14.63
2022-10-19T10:28:31.846Z,14.35
2022-10-19T10:31:03.655Z,13.99
2022-10-19T10:33:44.374Z,13.72
2022-10-19T10:36:12.630Z,14.09
2022-10-19T10:38:50.159Z,14.48
2022-10-19T10:41:20.309Z,14.70
2022-10-19T10:43:59.676Z,15.01
2022-10-19T10:46:41.451Z,15.11
2022-10-19T10:49:20.594Z,15.01
2022-10-19T10:52:17.312Z,14.90
2022-10-19T10:55:09.569Z,14.65
2022-10-19T10:57:45.469Z,14.77
2022-10-19T11:00:16.760Z,14.54
2022-10-19T11:02:51.279Z,14.08
2022-10-19T11:05:24.099Z,14.01
2022-10-19T11:08:00.963Z,14.62
2022-10-19T11:10:35.468Z,14.29
2022-10-19T11:13:07.211Z,14.60
2022-10-19T11:15:44.467Z,14.43
2022-10-19T11:18:20.187Z,14.80
2022-10-19T11:21:00.088Z,14.68
2022-10-19T11:23:44.659Z,14.57
2022-10-19T11:26:35.254Z,14.66
2022-10-19T11:29:39.619Z,14.57
2022-10-19T11:32:18.555Z,14.61
2022-10-19T11:35:20.861Z,15.19
2022-10-19T11:38:18.804Z,14.78
2022-10-19T11:41:24.115Z,14.61
2022-10-19T11:44:34.897Z,14.66
2022-10-19T11:47:07.421Z,14.81
2022-10-19T11:49:40.108Z,14.66
2022-10-19T11:52:25.634Z,14.43
2022-10-19T11:55:15.738Z,14.46
2022-10-19T11:57:54.824Z,14.43
2022-10-19T12:00:38.055Z,14.49
2022-10-19T12:03:24.242Z,14.71
2022-10-19T12:06:18.015Z,14.89
2022-10-19T12:09:06.003Z,14.84
2022-10-19T12:12:15.831Z,14.65
2022-10-19T12:14:46.630Z,14.70
2022-10-19T12:17:18.199Z,14.67
2022-10-19T12:19:50.184Z,14.81
2022-10-19T12:22:25.059Z,15.01
2022-10-19T12:24:55.377Z,15.11
2022-10-19T12:27:30.486Z,14.96
2022-10-19T12:30:03.774Z,14.77
2022-10-19T12:32:35.285Z,14.79
2022-10-19T12:35:17.843Z,15.12
2022-10-19T12:37:57.856Z,15.03
2022-10-19T12:40:39.984Z,14.97
2022-10-19T12:43:27.896Z,15.08
2022-10-19T12:46:20.452Z,15.00
2022-10-19T12:49:07.046Z,14.84
2022-10-19T12:51:45.692Z,15.00
2022-10-19T12:54:12.932Z,14.87
2022-10-19T12:56:52.976Z,14.75
2022-10-19T12:59:25.829Z,14.89
2022-10-19T13:01:54.349Z,14.73
2022-10-19T13:04:22.411Z,14.75
2022-10-19T13:06:58.124Z,14.70
2022-10-19T13:09:41.906Z,14.70
2022-10-19T13:12:21.511Z,14.68
2022-10-19T13:15:03.906Z,14.93
2022-10-19T13:17:51.088Z,15.01
2022-10-19T13:20:17.531Z,14.94
2022-10-19T13:22:50.205Z,14.89
2022-10-19T13:25:19.457Z,14.99
2022-10-19T13:28:06.183Z,15.22
2022-10-19T13:30:35.915Z,15.19
2022-10-19T13:33:28.658Z,14.68
2022-10-19T13:36:02.357Z,14.13
2022-10-19T13:38:41.814Z,14.15
2022-10-19T13:41:11.310Z,14.27
2022-10-19T13:44:03.137Z,14.21
2022-10-19T13:46:29.561Z,14.43
2022-10-19T13:49:05.103Z,14.52
2022-10-19T13:52:14.030Z,14.39
2022-10-19T13:54:52.837Z,14.18
2022-10-19T13:58:00.432Z,14.26
2022-10-19T14:01:14.227Z,14.27
2022-10-19T14:03:46.788Z,14.19
2022-10-19T14:06:28.362Z,14.02
2022-10-19T14:09:18.755Z,14.02
2022-10-19T14:11:48.496Z,13.93
2022-10-19T14:14:23.929Z,13.97
2022-10-19T14:17:05.189Z,13.85
2022-10-19T14:19:51.448Z,13.80
2022-10-19T14:22:33.787Z,13.75
2022-10-19T14:25:17.337Z,13.61
2022-10-19T14:27:45.073Z,13.42
2022-10-19T14:30:23.315Z,13.33
2022-10-19T14:32:49.923Z,13.13
2022-10-19T14:35:22.496Z,12.97
2022-10-19T14:37:49.773Z,12.91
2022-10-19T14:40:28.138Z,12.91
2022-10-19T14:42:56.913Z,12.90
2022-10-19T14:45:27.383Z,12.75
2022-10-19T14:48:06.891Z,12.65
2022-10-19T14:50:50.425Z,12.55
2022-10-19T14:53:39.772Z,12.56
2022-10-19T14:56:43.121Z,12.47
2022-10-19T14:59:21.471Z,12.37
2022-10-19T15:01:54.355Z,12.16
2022-10-19T15:04:24.204Z,11.97
2022-10-19T15:06:51.421Z,11.75
2022-10-19T15:09:37.336Z,11.59
2022-10-19T15:12:17.259Z,11.36
2022-10-19T15:14:45.791Z,11.24
2022-10-19T15:17:25.559Z,11.05
2022-10-19T15:19:53.817Z,10.82
2022-10-19T15:22:21.845Z,10.56
2022-10-19T15:25:14.450Z,10.27
2022-10-19T15:27:45.464Z,10.03
2022-10-19T15:30:17.755Z,9.80
2022-10-19T15:33:09.109Z,9.60
2022-10-19T15:35:38.367Z,9.44
2022-10-19T15:38:06.285Z,9.29
2022-10-19T15:40:35.881Z,9.14
2022-10-19T15:43:45.689Z,9.01
2022-10-19T15:46:12.232Z,8.87
2022-10-19T15:48:41.743Z,8.78
2022-10-19T15:51:33.060Z,8.69
2022-10-19T15:54:01.669Z,8.58
2022-10-19T15:56:30.813Z,8.51
2022-10-19T15:58:59.877Z,8.43
2022-10-19T16:01:29.238Z,8.38
2022-10-19T16:03:56.599Z,8.30
2022-10-19T16:06:26.392Z,8.20
2022-10-19T16:08:54.158Z,8.20
2022-10-19T16:11:22.970Z,8.13
2022-10-19T16:13:49.526Z,8.13
2022-10-19T16:16:28.188Z,8.07
2022-10-19T16:18:55.595Z,7.98
2022-10-19T16:21:25.748Z,7.90
2022-10-19T16:23:52.878Z,7.84
2022-10-19T16:26:20.423Z,7.80
2022-10-19T16:28:48.636Z,7.73
2022-10-19T16:31:16.792Z,7.66
2022-10-19T16:33:43.560Z,7.60
2022-10-19T16:36:10.402Z,7.52
2022-10-19T16:38:37.045Z,7.45
2022-10-19T16:41:08.374Z,7.38
2022-10-19T16:43:35.748Z,7.31
2022-10-19T16:46:02.579Z,7.23
2022-10-19T16:48:30.164Z,7.18
2022-10-19T16:51:05.598Z,7.12
2022-10-19T16:53:32.383Z,7.08
2022-10-19T16:56:07.786Z,6.99
2022-10-19T16:58:35.002Z,6.90
2022-10-19T17:01:10.489Z,6.84
2022-10-19T17:03:37.108Z,6.75
2022-10-19T17:06:05.829Z,6.70
2022-10-19T17:08:36.823Z,6.61
2022-10-19T17:11:15.147Z,6.51
2022-10-19T17:13:42.603Z,6.59
2022-10-19T17:16:09.716Z,6.57
2022-10-19T17:18:36.987Z,6.53
2022-10-19T17:21:05.577Z,6.49
2022-10-19T17:23:32.596Z,6.49
2022-10-19T17:25:59.160Z,6.46
2022-10-19T17:28:27.709Z,6.45
2022-10-19T17:30:54.780Z,6.39
2022-10-19T17:33:21.493Z,6.33
2022-10-19T17:35:48.111Z,6.35
2022-10-19T17:38:14.701Z,6.45
2022-10-19T17:40:41.289Z,6.54
2022-10-19T17:43:07.947Z,6.43
2022-10-19T17:45:34.785Z,6.34
2022-10-19T17:48:01.365Z,6.21
2022-10-19T17:50:27.865Z,6.26
2022-10-19T17:52:54.434Z,6.23
2022-10-19T17:57:48.566Z,6.07
2022-10-19T18:00:15.283Z,6.02
2022-10-19T18:02:44.173Z,5.99
2022-10-19T18:05:10.866Z,5.92
2022-10-19T18:07:37.579Z,5.89
2022-10-19T18:10:04.597Z,5.77
2022-10-19T18:12:31.306Z,5.82
2022-10-19T18:14:57.910Z,5.78
2022-10-19T18:17:27.692Z,5.82
2022-10-19T18:19:54.480Z,5.82
2022-10-19T18:22:21.893Z,6.02
2022-10-19T18:24:49.524Z,5.89
2022-10-19T18:27:16.130Z,5.74
2022-10-19T18:29:42.707Z,5.51
2022-10-19T18:32:09.250Z,5.43
2022-10-19T18:34:35.802Z,5.37
2022-10-19T18:37:02.438Z,5.24
2022-10-19T18:39:29.073Z,5.14
2022-10-19T18:41:55.664Z,5.19
2022-10-19T18:44:26.414Z,5.29
2022-10-19T18:46:55.492Z,5.34
2022-10-19T18:49:22.092Z,5.35
2022-10-19T18:51:54.013Z,5.35
2022-10-19T18:54:24.137Z,5.27
2022-10-19T18:56:50.688Z,5.23
2022-10-19T18:59:17.314Z,5.27
2022-10-19T19:01:43.960Z,5.31
2022-10-19T19:04:10.552Z,5.35
2022-10-19T19:06:38.215Z,5.26
2022-10-19T19:09:10.592Z,5.26
2022-10-19T19:11:40.745Z,5.24
2022-10-19T19:14:18.528Z,5.24
2022-10-19T19:16:45.545Z,5.22
2022-10-19T19:19:14.741Z,5.23
2022-10-19T19:21:44.333Z,5.18
2022-10-19T19:24:19.168Z,5.16
2022-10-19T19:26:52.064Z,5.20
2022-10-19T19:29:19.855Z,5.22
2022-10-19T19:31:47.293Z,5.27
2022-10-19T19:34:14.227Z,5.30
2022-10-19T19:36:48.403Z,5.37
2022-10-19T19:39:18.888Z,5.44
2022-10-19T19:41:45.866Z,5.51
2022-10-19T19:44:12.369Z,5.54
2022-10-19T19:46:38.963Z,5.61
2022-10-19T19:49:05.472Z,5.68
2022-10-19T19:51:33.444Z,5.68
2022-10-19T19:54:00.135Z,5.77
2022-10-19T19:56:26.937Z,5.84
2022-10-19T19:58:55.947Z,5.90
2022-10-19T20:01:22.947Z,5.99
2022-10-19T20:03:49.803Z,6.10
2022-10-19T20:06:20.750Z,6.08
2022-10-19T20:08:50.269Z,6.14
2022-10-19T20:11:17.598Z,6.08
2022-10-19T20:13:45.657Z,6.07
2022-10-19T20:16:18.308Z,6.08
2022-10-19T20:18:47.003Z,6.00
2022-10-19T20:21:14.663Z,6.02
2022-10-19T20:23:45.565Z,6.06
2022-10-19T20:26:16.678Z,6.08
2022-10-19T20:28:43.234Z,6.06
2022-10-19T20:31:10.847Z,6.08
2022-10-19T20:33:38.867Z,6.06
2022-10-19T20:36:13.994Z,6.02
2022-10-19T20:38:45.985Z,6.02
2022-10-19T20:41:12.559Z,6.04
2022-10-19T20:43:39.230Z,6.08
2022-10-19T20:46:13.354Z,6.13
2022-10-19T20:48:40.482Z,6.19
2022-10-19T20:51:27.536Z,6.22
2022-10-19T20:53:58.578Z,6.22
2022-10-19T20:56:28.059Z,6.21
2022-10-19T20:59:00.189Z,6.27
2022-10-19T21:01:28.146Z,6.27
2022-10-19T21:03:58.321Z,6.26
2022-10-19T21:06:26.896Z,6.30
2022-10-19T21:08:54.105Z,6.30
2022-10-19T21:11:23.346Z,6.35
2022-10-19T21:13:54.213Z,6.41
2022-10-19T21:16:22.120Z,6.42
2022-10-19T21:18:49.707Z,6.43
2022-10-19T21:21:28.805Z,6.47
2022-10-19T21:23:58.127Z,6.48
2022-10-19T21:26:26.565Z,6.44
2022-10-19T21:28:53.303Z,6.48
2022-10-19T21:31:21.622Z,6.46
2022-10-19T21:33:48.505Z,6.46
2022-10-19T21:36:15.694Z,6.41
2022-10-19T21:38:42.821Z,6.30
2022-10-19T21:41:20.839Z,6.24
2022-10-19T21:43:50.585Z,6.20
2022-10-19T21:46:19.604Z,6.27
2022-10-19T21:48:46.760Z,6.25
2022-10-19T21:51:22.423Z,6.27
2022-10-19T21:53:49.085Z,6.30
2022-10-19T21:56:16.385Z,6.26
2022-10-19T21:58:47.699Z,6.20
2022-10-19T22:01:15.242Z,6.16
2022-10-19T22:03:42.723Z,6.16
